createdAt,value
2022-08-26T00:01:54.300Z,11.30
2022-08-26T00:04:22.856Z,10.60
2022-08-26T00:06:50.784Z,10.77
2022-08-26T00:09:18.738Z,9.63
2022-08-26T00:11:47.289Z,9.70
2022-08-26T00:14:15.406Z,9.63
2022-08-26T00:16:47.658Z,9.10
2022-08-26T00:19:20.493Z,8.60
2022-08-26T00:21:49.754Z,8.50
2022-08-26T00:24:18.415Z,7.57
2022-08-26T00:26:46.923Z,9.90
2022-08-26T00:29:15.314Z,7.60
2022-08-26T00:31:45.076Z,7.47
2022-08-26T00:34:13.897Z,7.07
2022-08-26T00:36:41.888Z,8.55
2022-08-26T00:39:11.186Z,8.63
2022-08-26T00:41:41.605Z,9.02
2022-08-26T00:44:12.202Z,8.83
2022-08-26T00:46:46.982Z,8.30
2022-08-26T00:49:18.205Z,8.20
2022-08-26T00:54:14.474Z,7.13
2022-08-26T00:56:45.229Z,9.43
2022-08-26T00:59:15.497Z,10.52
2022-08-26T01:01:45.910Z,9.68
2022-08-26T01:04:16.378Z,8.50
2022-08-26T01:06:45.344Z,8.80
2022-08-26T01:09:13.532Z,9.25
2022-08-26T01:11:42.401Z,7.45
2022-08-26T01:14:13.625Z,9.57
2022-08-26T01:16:42.378Z,9.02
2022-08-26T01:19:41.566Z,10.45
2022-08-26T01:22:20.237Z,9.68
2022-08-26T01:24:49.226Z,11.23
2022-08-26T01:27:20.004Z,8.02
2022-08-26T01:29:49.963Z,8.40
2022-08-26T01:32:20.738Z,7.55
2022-08-26T01:34:48.996Z,8.43
2022-08-26T01:37:19.636Z,13.55
2022-08-26T01:39:49.501Z,12.73
2022-08-26T01:42:18.164Z,15.07
2022-08-26T01:44:52.801Z,18.70
2022-08-26T01:47:22.348Z,16.02
2022-08-26T01:49:54.208Z,16.42
2022-08-26T01:52:24.398Z,17.45
2022-08-26T01:54:56.956Z,16.02
2022-08-26T01:57:25.388Z,15.50
2022-08-26T01:59:54.531Z,15.75
2022-08-26T02:02:24.580Z,16.67
2022-08-26T02:04:58.490Z,14.85
2022-08-26T02:07:26.980Z,15.63
2022-08-26T02:09:55.402Z,16.13
2022-08-26T02:12:23.539Z,16.90
2022-08-26T02:14:54.526Z,15.38
2022-08-26T02:17:25.911Z,15.30
2022-08-26T02:19:54.078Z,14.50
2022-08-26T02:22:24.615Z,14.02
2022-08-26T02:24:54.506Z,15.13
2022-08-26T02:27:28.249Z,14.55
2022-08-26T02:30:02.368Z,14.23
2022-08-26T02:32:30.566Z,14.95
2022-08-26T02:34:58.473Z,12.15
2022-08-26T02:37:29.250Z,12.43
2022-08-26T02:39:57.448Z,12.55
2022-08-26T02:42:25.524Z,12.57
2022-08-26T02:44:53.390Z,11.93
2022-08-26T02:47:21.368Z,12.70
2022-08-26T02:49:53.257Z,9.52
2022-08-26T02:52:21.461Z,9.25
2022-08-26T02:54:49.548Z,8.85
2022-08-26T02:57:18.254Z,9.10
2022-08-26T02:59:46.000Z,9.65
2022-08-26T03:02:13.990Z,10.40
2022-08-26T03:04:58.144Z,9.65
2022-08-26T03:07:30.259Z,9.95
2022-08-26T03:09:58.764Z,9.23
2022-08-26T03:12:27.085Z,9.52
2022-08-26T03:14:55.269Z,8.98
2022-08-26T03:17:23.669Z,9.05
2022-08-26T03:19:57.366Z,8.55
2022-08-26T03:22:25.522Z,9.13
2022-08-26T03:24:55.079Z,8.02
2022-08-26T03:27:23.084Z,9.02
2022-08-26T03:30:11.832Z,8.52
2022-08-26T03:32:41.425Z,9.65
2022-08-26T03:35:09.690Z,9.52
2022-08-26T03:37:38.064Z,8.93
2022-08-26T03:40:09.068Z,10.52
2022-08-26T03:42:39.189Z,9.82
2022-08-26T03:45:09.046Z,11.15
2022-08-26T03:47:37.046Z,12.35
2022-08-26T03:50:07.086Z,12.93
2022-08-26T03:52:35.076Z,13.25
2022-08-26T03:55:03.259Z,13.52
2022-08-26T03:57:31.213Z,11.30
2022-08-26T04:00:00.401Z,13.02
2022-08-26T04:02:28.486Z,13.02
2022-08-26T04:04:56.748Z,12.55
2022-08-26T04:07:26.909Z,11.85
2022-08-26T04:09:58.860Z,12.38
2022-08-26T04:12:26.996Z,13.07
2022-08-26T04:14:54.946Z,11.25
2022-08-26T04:17:27.112Z,10.60
2022-08-26T04:19:55.289Z,9.73
2022-08-26T04:22:24.956Z,10.05
2022-08-26T04:24:53.595Z,9.63
2022-08-26T04:27:21.427Z,10.95
2022-08-26T04:29:52.436Z,12.05
2022-08-26T04:32:23.399Z,12.50
2022-08-26T04:34:51.308Z,14.80
2022-08-26T04:37:19.329Z,14.18
2022-08-26T04:39:47.596Z,14.38
2022-08-26T04:42:21.042Z,12.65
2022-08-26T04:44:54.377Z,11.98
2022-08-26T04:47:23.059Z,13.93
2022-08-26T04:49:51.190Z,13.30
2022-08-26T04:52:19.008Z,13.27
2022-08-26T04:54:46.948Z,12.50
2022-08-26T04:57:15.354Z,12.20
2022-08-26T04:59:43.428Z,14.05
2022-08-26T05:02:11.305Z,14.77
2022-08-26T05:04:39.081Z,15.73
2022-08-26T05:07:07.489Z,13.93
2022-08-26T05:09:35.388Z,14.48
2022-08-26T05:12:03.500Z,13.93
2022-08-26T05:14:31.438Z,14.02
2022-08-26T05:17:01.888Z,15.18
2022-08-26T05:19:30.154Z,14.48
2022-08-26T05:21:58.111Z,14.48
2022-08-26T05:24:26.288Z,14.55
2022-08-26T05:26:56.413Z,16.15
2022-08-26T05:29:24.778Z,15.00
2022-08-26T05:31:53.213Z,15.35
2022-08-26T05:34:23.786Z,14.38
2022-08-26T05:36:58.016Z,14.60
2022-08-26T05:39:26.081Z,14.98
2022-08-26T05:41:54.091Z,15.27
2022-08-26T05:44:22.453Z,12.52
2022-08-26T05:46:51.242Z,13.23
2022-08-26T05:49:19.916Z,12.63
2022-08-26T05:51:48.118Z,13.38
2022-08-26T05:54:21.710Z,13.27
2022-08-26T05:56:50.664Z,12.60
2022-08-26T05:59:23.976Z,12.80
2022-08-26T06:01:53.078Z,12.98
2022-08-26T06:04:21.450Z,13.77
2022-08-26T06:06:49.548Z,12.50
2022-08-26T06:09:18.345Z,12.48
2022-08-26T06:11:46.750Z,13.05
2022-08-26T06:14:15.712Z,12.77
2022-08-26T06:16:46.996Z,13.07
2022-08-26T06:21:46.183Z,13.25
2022-08-26T06:24:34.015Z,13.32
2022-08-26T06:27:03.109Z,12.25
2022-08-26T06:29:32.754Z,13.30
2022-08-26T06:32:01.303Z,12.45
2022-08-26T06:34:32.222Z,13.10
2022-08-26T06:37:01.882Z,12.68
2022-08-26T06:39:31.081Z,12.27
2022-08-26T06:42:00.102Z,12.63
2022-08-26T06:44:28.477Z,11.43
2022-08-26T06:46:56.481Z,12.75
2022-08-26T06:49:27.147Z,11.75
2022-08-26T06:51:56.313Z,13.52
2022-08-26T06:54:24.516Z,12.02
2022-08-26T06:56:52.803Z,11.68
2022-08-26T06:59:20.755Z,13.18
2022-08-26T07:01:48.718Z,12.55
2022-08-26T07:04:20.218Z,11.88
2022-08-26T07:06:52.832Z,11.63
2022-08-26T07:09:22.000Z,14.13
2022-08-26T07:11:50.285Z,13.57
2022-08-26T07:14:21.288Z,13.80
2022-08-26T07:19:18.622Z,14.20
2022-08-26T07:21:58.931Z,12.50
2022-08-26T07:24:28.564Z,13.00
2022-08-26T07:27:00.610Z,13.90
2022-08-26T07:29:28.531Z,12.85
2022-08-26T07:31:56.811Z,12.35
2022-08-26T07:34:26.131Z,14.23
2022-08-26T07:36:55.318Z,14.23
2022-08-26T07:39:23.524Z,13.25
2022-08-26T07:41:51.832Z,13.77
2022-08-26T07:44:20.772Z,13.13
2022-08-26T07:46:52.326Z,13.55
2022-08-26T07:49:22.894Z,13.05
2022-08-26T07:51:51.473Z,14.75
2022-08-26T07:54:19.807Z,14.90
2022-08-26T07:56:49.591Z,13.98
2022-08-26T07:59:20.074Z,14.90
2022-08-26T08:01:49.297Z,15.45
2022-08-26T08:04:21.900Z,15.18
2022-08-26T08:06:54.585Z,20.67
2022-08-26T08:09:22.712Z,14.32
2022-08-26T08:11:51.306Z,16.15
2022-08-26T08:14:22.206Z,14.38
2022-08-26T08:16:51.308Z,13.65
2022-08-26T08:19:22.897Z,14.23
2022-08-26T08:21:51.784Z,15.80
2022-08-26T08:24:20.297Z,12.55
2022-08-26T08:26:48.491Z,13.45
2022-08-26T08:29:16.390Z,13.13
2022-08-26T08:31:59.977Z,14.02
2022-08-26T08:34:29.359Z,13.38
2022-08-26T08:36:58.472Z,14.45
2022-08-26T08:39:26.689Z,13.63
2022-08-26T08:42:14.584Z,14.35
2022-08-26T08:44:44.347Z,13.00
2022-08-26T08:47:44.241Z,15.48
2022-08-26T08:50:25.472Z,13.27
2022-08-26T08:53:00.296Z,13.18
2022-08-26T08:55:32.687Z,12.60
2022-08-26T08:58:06.385Z,14.68
2022-08-26T09:00:58.956Z,13.88
2022-08-26T09:03:43.267Z,13.98
2022-08-26T09:06:18.197Z,13.95
2022-08-26T09:08:50.075Z,12.98
2022-08-26T09:11:19.781Z,12.90
2022-08-26T09:13:50.386Z,12.82
2022-08-26T09:16:21.350Z,13.38
2022-08-26T09:19:12.393Z,12.10
2022-08-26T09:21:40.462Z,11.60
2022-08-26T09:24:08.578Z,13.02
2022-08-26T09:26:42.262Z,11.25
2022-08-26T09:29:17.076Z,11.60
2022-08-26T09:31:44.903Z,10.90
2022-08-26T09:34:23.813Z,11.00
2022-08-26T09:36:56.409Z,10.65
2022-08-26T09:39:30.353Z,12.10
2022-08-26T09:42:07.371Z,12.20
2022-08-26T09:44:35.802Z,12.02
2022-08-26T09:47:06.507Z,11.60
2022-08-26T09:49:36.600Z,10.63
2022-08-26T09:52:24.726Z,10.63
2022-08-26T09:55:07.361Z,10.00
2022-08-26T09:57:37.315Z,10.90
2022-08-26T10:00:24.489Z,11.60
2022-08-26T10:02:56.044Z,11.38
2022-08-26T10:05:33.867Z,11.57
2022-08-26T10:08:02.312Z,11.40
2022-08-26T10:10:30.791Z,10.30
2022-08-26T10:13:04.683Z,12.73
2022-08-26T10:15:37.460Z,11.85
2022-08-26T10:18:32.087Z,11.77
2022-08-26T10:21:18.844Z,11.95
2022-08-26T10:23:49.876Z,12.75
2022-08-26T10:26:27.882Z,11.20
2022-08-26T10:29:02.626Z,12.80
2022-08-26T10:31:38.351Z,12.98
2022-08-26T10:34:09.920Z,11.48
2022-08-26T10:37:14.819Z,12.27
2022-08-26T10:39:44.092Z,12.10
2022-08-26T10:42:21.141Z,11.48
2022-08-26T10:44:51.281Z,12.00
2022-08-26T10:47:22.704Z,11.43
2022-08-26T10:49:57.523Z,12.27
2022-08-26T10:52:47.470Z,10.90
2022-08-26T10:55:25.809Z,12.27
2022-08-26T10:58:14.591Z,11.90
2022-08-26T11:01:22.615Z,11.60
2022-08-26T11:04:03.416Z,12.95
2022-08-26T11:09:02.769Z,11.95
2022-08-26T11:11:42.850Z,12.30
2022-08-26T11:14:28.451Z,11.57
2022-08-26T11:16:58.892Z,11.45
2022-08-26T11:19:57.045Z,10.63
2022-08-26T11:22:27.278Z,10.82
2022-08-26T11:24:58.112Z,12.05
2022-08-26T11:27:30.258Z,10.95
2022-08-26T11:29:58.526Z,11.57
2022-08-26T11:32:35.767Z,12.25
2022-08-26T11:35:06.041Z,10.85
2022-08-26T11:37:36.835Z,11.40
2022-08-26T11:40:11.519Z,10.95
2022-08-26T11:42:42.804Z,11.55
2022-08-26T11:45:16.842Z,10.23
2022-08-26T11:47:44.699Z,10.98
2022-08-26T11:50:18.347Z,10.30
2022-08-26T11:52:57.952Z,10.40
2022-08-26T11:55:26.597Z,9.43
2022-08-26T11:57:56.855Z,9.80
2022-08-26T12:00:37.419Z,9.40
2022-08-26T12:03:08.364Z,9.15
2022-08-26T12:05:38.198Z,7.78
2022-08-26T12:08:10.216Z,8.40
2022-08-26T12:10:39.256Z,9.50
2022-08-26T12:13:08.331Z,8.95
2022-08-26T12:15:36.950Z,9.88
2022-08-26T12:18:29.570Z,8.93
2022-08-26T12:20:59.741Z,8.57
2022-08-26T12:23:37.137Z,8.70
2022-08-26T12:26:20.061Z,9.25
2022-08-26T12:28:51.184Z,9.38
2022-08-26T12:31:31.259Z,9.80
2022-08-26T12:34:00.409Z,14.07
2022-08-26T12:36:33.388Z,11.00
2022-08-26T12:39:19.625Z,10.85
2022-08-26T12:41:50.310Z,11.75
2022-08-26T12:46:49.745Z,8.70
2022-08-26T12:49:19.428Z,10.10
2022-08-26T12:51:50.876Z,8.90
2022-08-26T12:54:19.616Z,9.45
2022-08-26T12:56:47.554Z,9.07
2022-08-26T12:59:25.240Z,9.38
2022-08-26T13:01:53.821Z,9.20
2022-08-26T13:04:40.256Z,9.40
2022-08-26T13:07:24.394Z,9.27
2022-08-26T13:09:53.718Z,9.95
2022-08-26T13:12:29.079Z,9.88
2022-08-26T13:14:57.240Z,9.38
2022-08-26T13:17:25.204Z,9.32
2022-08-26T13:19:53.134Z,8.98
2022-08-26T13:22:24.473Z,9.60
2022-08-26T13:24:57.421Z,8.75
2022-08-26T13:27:27.373Z,8.82
2022-08-26T13:29:55.693Z,10.35
2022-08-26T13:32:27.356Z,9.02
2022-08-26T13:34:56.751Z,8.93
2022-08-26T13:37:35.226Z,9.55
2022-08-26T13:40:06.116Z,9.38
2022-08-26T13:45:02.454Z,8.30
2022-08-26T13:47:30.373Z,8.85
2022-08-26T13:49:58.682Z,8.00
2022-08-26T13:52:30.774Z,8.38
2022-08-26T13:55:00.634Z,9.20
2022-08-26T13:57:29.710Z,9.13
2022-08-26T14:00:00.553Z,8.82
2022-08-26T14:02:29.014Z,9.00
2022-08-26T14:04:57.183Z,8.95
2022-08-26T14:07:25.004Z,9.43
2022-08-26T14:09:53.084Z,8.65
2022-08-26T14:12:21.159Z,9.63
2022-08-26T14:14:49.392Z,8.45
2022-08-26T14:17:19.504Z,8.43
2022-08-26T14:19:48.630Z,9.07
2022-08-26T14:22:18.584Z,8.32
2022-08-26T14:24:46.955Z,8.68
2022-08-26T14:27:14.834Z,8.57
2022-08-26T14:29:43.311Z,8.43
2022-08-26T14:32:22.679Z,9.13
2022-08-26T14:34:50.731Z,8.38
2022-08-26T14:37:19.154Z,8.27
2022-08-26T14:39:47.455Z,8.27
2022-08-26T14:42:17.868Z,8.77
2022-08-26T14:44:47.160Z,8.68
2022-08-26T14:47:15.050Z,8.82
2022-08-26T14:49:43.059Z,8.70
2022-08-26T14:52:10.869Z,8.13
2022-08-26T14:54:39.033Z,9.18
2022-08-26T14:57:12.371Z,9.40
2022-08-26T14:59:41.843Z,8.73
2022-08-26T15:02:29.667Z,9.30
2022-08-26T15:04:59.771Z,8.32
2022-08-26T15:07:27.348Z,9.45
2022-08-26T15:09:55.448Z,8.85
2022-08-26T15:12:23.934Z,7.93
2022-08-26T15:14:52.624Z,8.23
2022-08-26T15:17:20.575Z,8.00
2022-08-26T15:19:48.653Z,9.13
2022-08-26T15:22:16.678Z,8.32
2022-08-26T15:24:44.768Z,8.48
2022-08-26T15:27:13.658Z,8.88
2022-08-26T15:29:41.936Z,9.05
2022-08-26T15:32:09.964Z,7.80
2022-08-26T15:34:38.019Z,7.97
2022-08-26T15:37:06.687Z,8.40
2022-08-26T15:39:35.577Z,11.32
2022-08-26T15:42:03.796Z,7.53
2022-08-26T15:44:31.740Z,8.20
2022-08-26T15:47:00.035Z,7.65
2022-08-26T15:49:28.970Z,8.98
2022-08-26T15:51:56.837Z,8.57
2022-08-26T15:54:24.783Z,8.20
2022-08-26T15:56:54.306Z,9.15
2022-08-26T15:59:22.763Z,8.55
2022-08-26T16:01:50.860Z,8.45
2022-08-26T16:04:19.740Z,8.02
2022-08-26T16:06:52.250Z,8.48
2022-08-26T16:09:23.927Z,8.48
2022-08-26T16:11:52.338Z,8.75
2022-08-26T16:14:20.356Z,8.60
2022-08-26T16:16:48.431Z,8.63
2022-08-26T16:19:16.697Z,9.07
2022-08-26T16:21:45.052Z,8.00
2022-08-26T16:24:13.227Z,8.98
2022-08-26T16:26:42.453Z,8.45
2022-08-26T16:29:11.660Z,8.40
2022-08-26T16:31:39.942Z,8.93
2022-08-26T16:34:08.761Z,8.75
2022-08-26T16:36:37.442Z,8.90
2022-08-26T16:39:06.460Z,9.68
2022-08-26T16:41:34.730Z,8.85
2022-08-26T16:44:03.082Z,8.27
2022-08-26T16:46:31.237Z,9.52
2022-08-26T16:48:59.671Z,9.48
2022-08-26T16:51:28.598Z,8.88
2022-08-26T16:53:57.642Z,8.40
2022-08-26T16:56:30.595Z,8.75
2022-08-26T16:59:01.886Z,8.88
2022-08-26T17:01:29.783Z,9.23
2022-08-26T17:03:58.354Z,9.68
2022-08-26T17:06:26.147Z,9.18
2022-08-26T17:08:54.328Z,9.25
2022-08-26T17:11:22.167Z,9.43
2022-08-26T17:13:50.226Z,9.70
2022-08-26T17:16:18.167Z,10.02
2022-08-26T17:18:46.246Z,9.45
2022-08-26T17:21:15.161Z,9.70
2022-08-26T17:23:44.175Z,9.10
2022-08-26T17:26:13.381Z,10.27
2022-08-26T17:28:41.338Z,9.82
2022-08-26T17:31:11.093Z,9.77
2022-08-26T17:33:39.243Z,10.20
2022-08-26T17:36:08.743Z,10.25
2022-08-26T17:38:37.206Z,8.85
2022-08-26T17:41:08.331Z,10.38
2022-08-26T17:43:36.361Z,9.65
2022-08-26T17:46:06.991Z,9.68
2022-08-26T17:48:36.307Z,9.65
2022-08-26T17:51:08.695Z,10.55
2022-08-26T17:53:36.997Z,13.15
2022-08-26T17:56:06.764Z,13.77
2022-08-26T18:01:05.880Z,14.30
2022-08-26T18:03:33.881Z,13.57
2022-08-26T18:06:01.898Z,14.32
2022-08-26T18:08:29.854Z,13.57
2022-08-26T18:10:58.174Z,13.73
2022-08-26T18:13:26.350Z,13.38
2022-08-26T18:15:54.431Z,12.75
2022-08-26T18:18:22.506Z,13.32
2022-08-26T18:20:54.081Z,12.95
2022-08-26T18:23:31.397Z,12.07
2022-08-26T18:25:59.509Z,11.57
2022-08-26T18:28:27.792Z,10.77
2022-08-26T18:30:57.000Z,12.88
2022-08-26T18:33:25.750Z,11.90
2022-08-26T18:35:54.062Z,10.82
2022-08-26T18:38:22.461Z,11.48
2022-08-26T18:40:50.416Z,10.23
2022-08-26T18:43:18.187Z,10.02
2022-08-26T18:45:46.001Z,8.07
2022-08-26T18:48:14.101Z,8.25
2022-08-26T18:50:46.994Z,7.63
2022-08-26T18:53:15.594Z,7.50
2022-08-26T18:55:43.652Z,6.65
2022-08-26T18:58:11.787Z,5.88
2022-08-26T19:00:39.849Z,6.28
2022-08-26T19:03:11.886Z,5.65
2022-08-26T19:05:47.020Z,5.25
2022-08-26T19:08:15.135Z,7.45
2022-08-26T19:10:42.990Z,6.20
2022-08-26T19:13:11.501Z,7.28
2022-08-26T19:15:43.664Z,6.88
2022-08-26T19:18:12.218Z,7.70
2022-08-26T19:20:43.554Z,8.23
2022-08-26T19:23:30.906Z,7.65
2022-08-26T19:26:00.030Z,7.60
2022-08-26T19:28:28.310Z,7.65
2022-08-26T19:30:56.377Z,7.82
2022-08-26T19:33:24.204Z,7.50
2022-08-26T19:35:51.987Z,6.78
2022-08-26T19:38:19.841Z,6.88
2022-08-26T19:40:47.883Z,6.90
2022-08-26T19:43:16.052Z,5.68
2022-08-26T19:45:45.103Z,5.97
2022-08-26T19:48:12.843Z,6.70
2022-08-26T19:50:40.933Z,7.97
2022-08-26T19:53:09.124Z,6.97
2022-08-26T19:55:37.237Z,6.45
2022-08-26T19:58:05.485Z,7.45
2022-08-26T20:00:33.932Z,7.50
2022-08-26T20:03:02.134Z,6.82
2022-08-26T20:05:30.015Z,6.13
2022-08-26T20:07:58.150Z,6.65
2022-08-26T20:10:26.482Z,5.57
2022-08-26T20:12:54.627Z,5.40
2022-08-26T20:15:23.061Z,4.80
2022-08-26T20:17:51.056Z,4.60
2022-08-26T20:20:37.537Z,5.07
2022-08-26T20:23:06.425Z,4.55
2022-08-26T20:25:34.661Z,4.32
2022-08-26T20:28:03.269Z,4.70
2022-08-26T20:30:32.453Z,4.10
2022-08-26T20:33:00.602Z,4.65
2022-08-26T20:35:28.645Z,3.90
2022-08-26T20:37:56.610Z,4.97
2022-08-26T20:40:24.662Z,4.82
2022-08-26T20:42:52.752Z,5.38
2022-08-26T20:45:20.744Z,5.00
2022-08-26T20:47:48.570Z,4.63
2022-08-26T20:50:16.896Z,5.40
2022-08-26T20:52:44.684Z,5.85
2022-08-26T20:55:12.836Z,5.28
2022-08-26T20:57:43.532Z,5.43
2022-08-26T21:00:14.136Z,5.68
2022-08-26T21:02:42.180Z,6.40
2022-08-26T21:05:10.354Z,5.85
2022-08-26T21:07:38.606Z,5.50
2022-08-26T21:10:06.949Z,5.93
2022-08-26T21:12:34.792Z,5.75
2022-08-26T21:15:02.758Z,5.30
2022-08-26T21:17:30.775Z,5.70
2022-08-26T21:19:59.140Z,5.32
2022-08-26T21:22:27.690Z,5.50
2022-08-26T21:24:55.900Z,5.82
2022-08-26T21:27:26.312Z,6.57
2022-08-26T21:29:54.928Z,6.10
2022-08-26T21:32:23.072Z,6.03
2022-08-26T21:34:51.074Z,6.93
2022-08-26T21:37:19.049Z,5.32
2022-08-26T21:39:47.120Z,4.60
2022-08-26T21:42:15.912Z,4.53
2022-08-26T21:44:46.523Z,5.00
2022-08-26T21:47:22.068Z,4.57
2022-08-26T21:49:50.419Z,5.85
2022-08-26T21:52:19.160Z,5.22
2022-08-26T21:54:49.561Z,5.55
2022-08-26T21:57:18.223Z,5.07
2022-08-26T21:59:45.918Z,5.78
2022-08-26T22:02:14.577Z,5.40
2022-08-26T22:04:48.099Z,4.95
2022-08-26T22:07:18.597Z,4.95
2022-08-26T22:09:46.725Z,5.53
2022-08-26T22:12:14.770Z,5.47
2022-08-26T22:14:42.838Z,5.97
2022-08-26T22:17:10.968Z,5.75
2022-08-26T22:19:45.920Z,6.10
2022-08-26T22:22:14.762Z,6.03
2022-08-26T22:24:44.470Z,6.25
2022-08-26T22:27:13.217Z,6.88
2022-08-26T22:29:41.325Z,6.35
2022-08-26T22:32:09.385Z,5.47
2022-08-26T22:34:37.083Z,5.35
2022-08-26T22:37:05.035Z,5.55
2022-08-26T22:39:33.070Z,4.78
2022-08-26T22:42:01.406Z,4.72
2022-08-26T22:44:29.158Z,4.80
2022-08-26T22:46:57.203Z,4.28
2022-08-26T22:49:25.735Z,4.18
2022-08-26T22:51:53.828Z,5.10
2022-08-26T22:54:21.929Z,4.40
2022-08-26T22:56:50.066Z,4.22
2022-08-26T22:59:18.451Z,4.38
2022-08-26T23:01:47.587Z,4.47
2022-08-26T23:04:15.806Z,4.90
2022-08-26T23:06:47.495Z,4.40
2022-08-26T23:09:18.353Z,4.53
2022-08-26T23:11:47.688Z,4.68
2022-08-26T23:14:16.347Z,3.70
2022-08-26T23:16:44.501Z,5.65
2022-08-26T23:19:13.978Z,4.63
2022-08-26T23:21:41.966Z,4.32
2022-08-26T23:24:10.412Z,4.97
2022-08-26T23:26:39.127Z,4.80
2022-08-26T23:29:08.654Z,5.78
2022-08-26T23:31:37.415Z,4.57
2022-08-26T23:34:24.254Z,5.00
2022-08-26T23:36:54.004Z,5.32
2022-08-26T23:39:22.532Z,4.63
2022-08-26T23:41:50.856Z,4.75
2022-08-26T23:44:19.014Z,5.28
2022-08-26T23:46:46.915Z,4.95
2022-08-26T23:49:14.762Z,5.53
2022-08-26T23:52:01.344Z,4.68
2022-08-26T23:54:29.438Z,4.43
2022-08-26T23:56:57.582Z,5.03
2022-08-26T23:59:25.693Z,4.90
